sensor_id;sensor_type;location;lat;lon;timestamp;P1;durP1;ratioP1;P2;durP2;ratioP2
43070;SDS011;36278;47.952;21.714;2023-03-21T00:01:51;83.67;;;55.67;;
43070;SDS011;36278;47.952;21.714;2023-03-21T00:04:17;75.17;;;53.50;;
43070;SDS011;36278;47.952;21.714;2023-03-21T00:06:43;85.03;;;56.37;;
43070;SDS011;36278;47.952;21.714;2023-03-21T00:09:08;78.67;;;55.57;;
43070;SDS011;36278;47.952;21.714;2023-03-21T00:11:34;79.97;;;53.67;;
43070;SDS011;36278;47.952;21.714;2023-03-21T00:14:00;68.13;;;44.57;;
43070;SDS011;36278;47.952;21.714;2023-03-21T00:16:26;73.00;;;48.80;;
43070;SDS011;36278;47.952;21.714;2023-03-21T00:18:54;74.27;;;48.67;;
43070;SDS011;36278;47.952;21.714;2023-03-21T00:21:21;70.37;;;45.83;;
43070;SDS011;36278;47.952;21.714;2023-03-21T00:23:52;60.47;;;39.80;;
43070;SDS011;36278;47.952;21.714;2023-03-21T00:26:19;54.10;;;37.43;;
43070;SDS011;36278;47.952;21.714;2023-03-21T00:28:46;61.07;;;40.27;;
43070;SDS011;36278;47.952;21.714;2023-03-21T00:31:12;53.83;;;38.50;;
43070;SDS011;36278;47.952;21.714;2023-03-21T00:33:37;53.60;;;34.33;;
43070;SDS011;36278;47.952;21.714;2023-03-21T00:36:03;50.30;;;32.20;;
43070;SDS011;36278;47.952;21.714;2023-03-21T00:38:29;44.63;;;31.63;;
43070;SDS011;36278;47.952;21.714;2023-03-21T00:40:55;45.10;;;31.53;;
43070;SDS011;36278;47.952;21.714;2023-03-21T00:43:20;48.57;;;30.33;;
43070;SDS011;36278;47.952;21.714;2023-03-21T00:48:20;49.40;;;32.87;;
43070;SDS011;36278;47.952;21.714;2023-03-21T00:50:46;45.77;;;32.10;;
43070;SDS011;36278;47.952;21.714;2023-03-21T00:53:12;49.63;;;33.37;;
43070;SDS011;36278;47.952;21.714;2023-03-21T00:55:38;47.77;;;33.90;;
43070;SDS011;36278;47.952;21.714;2023-03-21T00:58:05;47.03;;;33.60;;
43070;SDS011;36278;47.952;21.714;2023-03-21T01:00:31;56.43;;;35.97;;
43070;SDS011;36278;47.952;21.714;2023-03-21T01:02:58;51.93;;;36.37;;
43070;SDS011;36278;47.952;21.714;2023-03-21T01:05:29;49.33;;;35.67;;
43070;SDS011;36278;47.952;21.714;2023-03-21T01:08:15;54.67;;;37.77;;
43070;SDS011;36278;47.952;21.714;2023-03-21T01:10:44;50.47;;;35.20;;
43070;SDS011;36278;47.952;21.714;2023-03-21T01:13:11;51.10;;;35.63;;
43070;SDS011;36278;47.952;21.714;2023-03-21T01:15:43;51.27;;;35.40;;
43070;SDS011;36278;47.952;21.714;2023-03-21T01:18:11;53.70;;;36.20;;
43070;SDS011;36278;47.952;21.714;2023-03-21T01:20:42;57.27;;;37.73;;
43070;SDS011;36278;47.952;21.714;2023-03-21T01:23:08;52.30;;;37.50;;
43070;SDS011;36278;47.952;21.714;2023-03-21T01:25:35;56.23;;;37.20;;
43070;SDS011;36278;47.952;21.714;2023-03-21T01:28:01;49.13;;;35.20;;
43070;SDS011;36278;47.952;21.714;2023-03-21T01:30:27;55.43;;;37.07;;
43070;SDS011;36278;47.952;21.714;2023-03-21T01:32:53;53.97;;;37.23;;
43070;SDS011;36278;47.952;21.714;2023-03-21T01:35:18;51.33;;;35.27;;
43070;SDS011;36278;47.952;21.714;2023-03-21T01:37:44;48.33;;;36.10;;
43070;SDS011;36278;47.952;21.714;2023-03-21T01:40:17;55.20;;;37.17;;
43070;SDS011;36278;47.952;21.714;2023-03-21T01:42:47;54.03;;;37.17;;
43070;SDS011;36278;47.952;21.714;2023-03-21T01:48:16;50.37;;;36.03;;
43070;SDS011;36278;47.952;21.714;2023-03-21T01:50:43;53.70;;;36.63;;
43070;SDS011;36278;47.952;21.714;2023-03-21T01:53:10;51.17;;;35.60;;
43070;SDS011;36278;47.952;21.714;2023-03-21T01:55:36;52.53;;;36.60;;
43070;SDS011;36278;47.952;21.714;2023-03-21T01:58:02;53.07;;;37.80;;
43070;SDS011;36278;47.952;21.714;2023-03-21T02:00:30;54.27;;;37.83;;
43070;SDS011;36278;47.952;21.714;2023-03-21T02:02:57;52.37;;;36.87;;
43070;SDS011;36278;47.952;21.714;2023-03-21T02:07:57;54.30;;;38.00;;
43070;SDS011;36278;47.952;21.714;2023-03-21T02:10:24;58.23;;;38.80;;
43070;SDS011;36278;47.952;21.714;2023-03-21T02:12:51;55.33;;;39.17;;
43070;SDS011;36278;47.952;21.714;2023-03-21T02:15:19;53.53;;;39.13;;
43070;SDS011;36278;47.952;21.714;2023-03-21T02:17:56;58.10;;;39.23;;
43070;SDS011;36278;47.952;21.714;2023-03-21T02:29:21;59.37;;;40.40;;
43070;SDS011;36278;47.952;21.714;2023-03-21T02:34:30;54.47;;;40.40;;
43070;SDS011;36278;47.952;21.714;2023-03-21T02:42:26;57.60;;;40.97;;
43070;SDS011;36278;47.952;21.714;2023-03-21T02:47:33;58.33;;;40.87;;
43070;SDS011;36278;47.952;21.714;2023-03-21T02:52:37;59.60;;;41.20;;
43070;SDS011;36278;47.952;21.714;2023-03-21T02:55:04;62.43;;;43.13;;
43070;SDS011;36278;47.952;21.714;2023-03-21T02:57:38;55.67;;;41.20;;
43070;SDS011;36278;47.952;21.714;2023-03-21T03:00:06;57.10;;;40.83;;
43070;SDS011;36278;47.952;21.714;2023-03-21T03:02:37;59.20;;;43.10;;
43070;SDS011;36278;47.952;21.714;2023-03-21T03:05:11;72.60;;;47.87;;
43070;SDS011;36278;47.952;21.714;2023-03-21T03:07:39;64.33;;;47.50;;
43070;SDS011;36278;47.952;21.714;2023-03-21T03:15:56;72.05;;;48.80;;
43070;SDS011;36278;47.952;21.714;2023-03-21T03:21:15;71.00;;;47.63;;
43070;SDS011;36278;47.952;21.714;2023-03-21T03:23:47;68.33;;;48.93;;
43070;SDS011;36278;47.952;21.714;2023-03-21T03:26:19;63.03;;;46.13;;
43070;SDS011;36278;47.952;21.714;2023-03-21T03:28:51;70.93;;;49.03;;
43070;SDS011;36278;47.952;21.714;2023-03-21T03:31:23;68.33;;;50.37;;
43070;SDS011;36278;47.952;21.714;2023-03-21T03:33:54;66.27;;;49.53;;
43070;SDS011;36278;47.952;21.714;2023-03-21T03:36:24;74.30;;;49.57;;
43070;SDS011;36278;47.952;21.714;2023-03-21T03:38:53;69.03;;;50.23;;
43070;SDS011;36278;47.952;21.714;2023-03-21T03:41:23;69.83;;;49.40;;
43070;SDS011;36278;47.952;21.714;2023-03-21T03:43:51;68.03;;;47.00;;
43070;SDS011;36278;47.952;21.714;2023-03-21T03:46:30;61.13;;;45.13;;
43070;SDS011;36278;47.952;21.714;2023-03-21T03:49:47;63.70;;;45.57;;
43070;SDS011;36278;47.952;21.714;2023-03-21T03:51:57;57.43;;;44.80;;
43070;SDS011;36278;47.952;21.714;2023-03-21T03:54:29;64.50;;;45.30;;
43070;SDS011;36278;47.952;21.714;2023-03-21T03:57:01;58.05;;;43.20;;
43070;SDS011;36278;47.952;21.714;2023-03-21T03:59:28;55.23;;;40.27;;
43070;SDS011;36278;47.952;21.714;2023-03-21T04:01:54;55.23;;;38.63;;
43070;SDS011;36278;47.952;21.714;2023-03-21T04:04:20;55.90;;;37.40;;
43070;SDS011;36278;47.952;21.714;2023-03-21T04:06:47;49.07;;;36.20;;
43070;SDS011;36278;47.952;21.714;2023-03-21T04:09:16;58.20;;;36.73;;
43070;SDS011;36278;47.952;21.714;2023-03-21T04:11:42;52.97;;;35.77;;
43070;SDS011;36278;47.952;21.714;2023-03-21T04:14:08;50.37;;;37.13;;
43070;SDS011;36278;47.952;21.714;2023-03-21T04:16:34;49.40;;;34.77;;
43070;SDS011;36278;47.952;21.714;2023-03-21T04:18:59;49.50;;;36.27;;
43070;SDS011;36278;47.952;21.714;2023-03-21T04:21:26;52.63;;;36.03;;
43070;SDS011;36278;47.952;21.714;2023-03-21T04:23:53;51.60;;;35.53;;
43070;SDS011;36278;47.952;21.714;2023-03-21T04:26:21;53.33;;;38.00;;
43070;SDS011;36278;47.952;21.714;2023-03-21T04:28:48;51.23;;;35.70;;
43070;SDS011;36278;47.952;21.714;2023-03-21T04:31:15;62.27;;;38.10;;
43070;SDS011;36278;47.952;21.714;2023-03-21T04:33:44;49.67;;;36.27;;
43070;SDS011;36278;47.952;21.714;2023-03-21T04:36:12;52.10;;;36.37;;
43070;SDS011;36278;47.952;21.714;2023-03-21T04:38:49;53.70;;;36.93;;
43070;SDS011;36278;47.952;21.714;2023-03-21T04:41:14;62.60;;;36.43;;
43070;SDS011;36278;47.952;21.714;2023-03-21T04:43:40;53.63;;;36.83;;
43070;SDS011;36278;47.952;21.714;2023-03-21T04:46:05;53.67;;;36.80;;
43070;SDS011;36278;47.952;21.714;2023-03-21T04:48:31;49.87;;;35.20;;
43070;SDS011;36278;47.952;21.714;2023-03-21T04:50:56;49.97;;;34.63;;
43070;SDS011;36278;47.952;21.714;2023-03-21T04:53:22;48.53;;;35.23;;
43070;SDS011;36278;47.952;21.714;2023-03-21T04:55:47;50.90;;;35.40;;
43070;SDS011;36278;47.952;21.714;2023-03-21T04:58:12;44.47;;;32.00;;
43070;SDS011;36278;47.952;21.714;2023-03-21T05:00:38;44.07;;;32.30;;
43070;SDS011;36278;47.952;21.714;2023-03-21T05:03:04;43.53;;;31.47;;
43070;SDS011;36278;47.952;21.714;2023-03-21T05:05:37;45.30;;;31.13;;
43070;SDS011;36278;47.952;21.714;2023-03-21T05:08:03;42.07;;;29.10;;
43070;SDS011;36278;47.952;21.714;2023-03-21T05:10:29;42.10;;;28.30;;
43070;SDS011;36278;47.952;21.714;2023-03-21T05:12:55;37.77;;;28.07;;
43070;SDS011;36278;47.952;21.714;2023-03-21T05:15:20;43.37;;;28.37;;
43070;SDS011;36278;47.952;21.714;2023-03-21T05:17:46;41.00;;;28.37;;
43070;SDS011;36278;47.952;21.714;2023-03-21T05:20:12;42.17;;;29.40;;
43070;SDS011;36278;47.952;21.714;2023-03-21T05:22:41;44.53;;;30.17;;
43070;SDS011;36278;47.952;21.714;2023-03-21T05:25:07;43.60;;;30.17;;
43070;SDS011;36278;47.952;21.714;2023-03-21T05:27:34;40.13;;;28.67;;
43070;SDS011;36278;47.952;21.714;2023-03-21T05:30:04;43.03;;;30.40;;
43070;SDS011;36278;47.952;21.714;2023-03-21T05:32:32;44.87;;;28.73;;
43070;SDS011;36278;47.952;21.714;2023-03-21T05:34:58;40.23;;;29.83;;
43070;SDS011;36278;47.952;21.714;2023-03-21T05:37:23;43.07;;;29.23;;
43070;SDS011;36278;47.952;21.714;2023-03-21T05:39:49;41.40;;;28.87;;
43070;SDS011;36278;47.952;21.714;2023-03-21T05:42:15;49.50;;;33.83;;
43070;SDS011;36278;47.952;21.714;2023-03-21T05:44:42;59.23;;;39.83;;
43070;SDS011;36278;47.952;21.714;2023-03-21T05:47:08;50.97;;;35.70;;
43070;SDS011;36278;47.952;21.714;2023-03-21T05:49:34;55.20;;;40.37;;
43070;SDS011;36278;47.952;21.714;2023-03-21T05:51:59;67.20;;;46.63;;
43070;SDS011;36278;47.952;21.714;2023-03-21T05:54:25;85.03;;;53.50;;
43070;SDS011;36278;47.952;21.714;2023-03-21T05:56:50;92.27;;;60.70;;
43070;SDS011;36278;47.952;21.714;2023-03-21T05:59:16;90.37;;;63.20;;
43070;SDS011;36278;47.952;21.714;2023-03-21T06:01:41;96.07;;;64.53;;
43070;SDS011;36278;47.952;21.714;2023-03-21T06:04:06;90.80;;;67.53;;
43070;SDS011;36278;47.952;21.714;2023-03-21T06:06:32;101.27;;;68.80;;
43070;SDS011;36278;47.952;21.714;2023-03-21T06:08:58;95.03;;;66.87;;
43070;SDS011;36278;47.952;21.714;2023-03-21T06:11:27;92.23;;;63.13;;
43070;SDS011;36278;47.952;21.714;2023-03-21T06:13:56;89.10;;;60.70;;
43070;SDS011;36278;47.952;21.714;2023-03-21T06:16:21;84.77;;;58.13;;
43070;SDS011;36278;47.952;21.714;2023-03-21T06:18:47;76.80;;;55.97;;
43070;SDS011;36278;47.952;21.714;2023-03-21T06:21:12;79.53;;;55.37;;
43070;SDS011;36278;47.952;21.714;2023-03-21T06:23:38;77.00;;;53.70;;
43070;SDS011;36278;47.952;21.714;2023-03-21T06:26:04;79.77;;;54.30;;
43070;SDS011;36278;47.952;21.714;2023-03-21T06:28:30;71.10;;;51.93;;
43070;SDS011;36278;47.952;21.714;2023-03-21T06:30:55;80.33;;;52.63;;
43070;SDS011;36278;47.952;21.714;2023-03-21T06:33:21;70.67;;;50.83;;
43070;SDS011;36278;47.952;21.714;2023-03-21T06:35:53;70.80;;;50.77;;
43070;SDS011;36278;47.952;21.714;2023-03-21T06:38:20;71.53;;;52.80;;
43070;SDS011;36278;47.952;21.714;2023-03-21T06:40:46;75.90;;;52.53;;
43070;SDS011;36278;47.952;21.714;2023-03-21T06:43:12;78.17;;;52.03;;
43070;SDS011;36278;47.952;21.714;2023-03-21T06:45:37;72.33;;;50.03;;
43070;SDS011;36278;47.952;21.714;2023-03-21T06:48:03;73.27;;;50.43;;
43070;SDS011;36278;47.952;21.714;2023-03-21T06:50:29;76.10;;;51.53;;
43070;SDS011;36278;47.952;21.714;2023-03-21T06:52:54;76.03;;;48.87;;
43070;SDS011;36278;47.952;21.714;2023-03-21T06:55:21;73.27;;;49.53;;
43070;SDS011;36278;47.952;21.714;2023-03-21T06:57:50;67.97;;;49.03;;
43070;SDS011;36278;47.952;21.714;2023-03-21T07:00:20;71.53;;;48.47;;
43070;SDS011;36278;47.952;21.714;2023-03-21T07:02:47;69.23;;;45.20;;
43070;SDS011;36278;47.952;21.714;2023-03-21T07:05:12;57.27;;;39.50;;
43070;SDS011;36278;47.952;21.714;2023-03-21T07:07:38;51.83;;;36.00;;
43070;SDS011;36278;47.952;21.714;2023-03-21T07:10:05;47.70;;;32.63;;
43070;SDS011;36278;47.952;21.714;2023-03-21T07:12:31;44.13;;;31.83;;
43070;SDS011;36278;47.952;21.714;2023-03-21T07:14:59;47.90;;;32.97;;
43070;SDS011;36278;47.952;21.714;2023-03-21T07:17:28;44.80;;;32.83;;
43070;SDS011;36278;47.952;21.714;2023-03-21T07:19:54;44.73;;;32.17;;
43070;SDS011;36278;47.952;21.714;2023-03-21T07:22:20;43.80;;;29.33;;
43070;SDS011;36278;47.952;21.714;2023-03-21T07:24:45;45.90;;;31.87;;
43070;SDS011;36278;47.952;21.714;2023-03-21T07:27:16;41.07;;;30.83;;
43070;SDS011;36278;47.952;21.714;2023-03-21T07:29:42;42.53;;;29.97;;
43070;SDS011;36278;47.952;21.714;2023-03-21T07:32:09;45.60;;;27.57;;
43070;SDS011;36278;47.952;21.714;2023-03-21T07:34:35;40.57;;;27.33;;
43070;SDS011;36278;47.952;21.714;2023-03-21T07:37:02;43.87;;;28.13;;
43070;SDS011;36278;47.952;21.714;2023-03-21T07:39:28;42.07;;;29.37;;
43070;SDS011;36278;47.952;21.714;2023-03-21T07:41:54;38.83;;;29.67;;
43070;SDS011;36278;47.952;21.714;2023-03-21T07:44:22;44.13;;;30.57;;
43070;SDS011;36278;47.952;21.714;2023-03-21T07:46:49;41.93;;;30.10;;
43070;SDS011;36278;47.952;21.714;2023-03-21T07:49:14;44.13;;;30.70;;
43070;SDS011;36278;47.952;21.714;2023-03-21T07:51:40;42.80;;;30.30;;
43070;SDS011;36278;47.952;21.714;2023-03-21T07:54:06;41.27;;;28.27;;
43070;SDS011;36278;47.952;21.714;2023-03-21T07:56:32;39.00;;;26.23;;
43070;SDS011;36278;47.952;21.714;2023-03-21T07:58:57;34.10;;;26.37;;
43070;SDS011;36278;47.952;21.714;2023-03-21T08:01:23;38.43;;;26.23;;
43070;SDS011;36278;47.952;21.714;2023-03-21T08:03:50;39.10;;;26.03;;
43070;SDS011;36278;47.952;21.714;2023-03-21T08:06:20;37.97;;;26.77;;
43070;SDS011;36278;47.952;21.714;2023-03-21T08:08:46;37.80;;;26.50;;
43070;SDS011;36278;47.952;21.714;2023-03-21T08:11:13;34.63;;;27.33;;
43070;SDS011;36278;47.952;21.714;2023-03-21T08:13:39;36.07;;;25.60;;
43070;SDS011;36278;47.952;21.714;2023-03-21T08:16:05;30.77;;;23.60;;
43070;SDS011;36278;47.952;21.714;2023-03-21T08:18:32;32.13;;;25.43;;
43070;SDS011;36278;47.952;21.714;2023-03-21T08:20:58;33.07;;;24.47;;
43070;SDS011;36278;47.952;21.714;2023-03-21T08:23:24;37.57;;;24.40;;
43070;SDS011;36278;47.952;21.714;2023-03-21T08:25:53;31.50;;;23.20;;
43070;SDS011;36278;47.952;21.714;2023-03-21T08:28:20;32.70;;;24.43;;
43070;SDS011;36278;47.952;21.714;2023-03-21T08:30:46;30.33;;;23.33;;
43070;SDS011;36278;47.952;21.714;2023-03-21T08:33:12;31.00;;;23.60;;
43070;SDS011;36278;47.952;21.714;2023-03-21T08:35:39;28.37;;;22.37;;
43070;SDS011;36278;47.952;21.714;2023-03-21T08:38:04;33.20;;;22.67;;
43070;SDS011;36278;47.952;21.714;2023-03-21T08:40:30;29.80;;;20.00;;
43070;SDS011;36278;47.952;21.714;2023-03-21T08:42:56;28.80;;;20.63;;
43070;SDS011;36278;47.952;21.714;2023-03-21T08:45:22;25.83;;;19.63;;
43070;SDS011;36278;47.952;21.714;2023-03-21T08:47:49;31.33;;;20.83;;
43070;SDS011;36278;47.952;21.714;2023-03-21T08:50:16;27.87;;;19.20;;
43070;SDS011;36278;47.952;21.714;2023-03-21T08:52:43;23.73;;;17.80;;
43070;SDS011;36278;47.952;21.714;2023-03-21T08:55:10;22.23;;;18.23;;
43070;SDS011;36278;47.952;21.714;2023-03-21T08:57:36;24.33;;;17.30;;
43070;SDS011;36278;47.952;21.714;2023-03-21T09:00:02;19.43;;;16.50;;
43070;SDS011;36278;47.952;21.714;2023-03-21T09:02:42;26.30;;;17.07;;
43070;SDS011;36278;47.952;21.714;2023-03-21T09:05:09;20.40;;;15.33;;
43070;SDS011;36278;47.952;21.714;2023-03-21T09:07:39;21.50;;;16.07;;
43070;SDS011;36278;47.952;21.714;2023-03-21T09:10:06;21.37;;;16.33;;
43070;SDS011;36278;47.952;21.714;2023-03-21T09:12:35;23.33;;;16.17;;
43070;SDS011;36278;47.952;21.714;2023-03-21T09:15:01;22.50;;;16.17;;
43070;SDS011;36278;47.952;21.714;2023-03-21T09:17:28;27.10;;;15.43;;
43070;SDS011;36278;47.952;21.714;2023-03-21T09:19:55;25.03;;;15.47;;
43070;SDS011;36278;47.952;21.714;2023-03-21T09:22:23;19.50;;;15.47;;
43070;SDS011;36278;47.952;21.714;2023-03-21T09:24:49;20.53;;;15.00;;
43070;SDS011;36278;47.952;21.714;2023-03-21T09:27:15;20.33;;;15.93;;
43070;SDS011;36278;47.952;21.714;2023-03-21T09:29:49;21.33;;;16.73;;
43070;SDS011;36278;47.952;21.714;2023-03-21T09:32:14;37.43;;;25.83;;
43070;SDS011;36278;47.952;21.714;2023-03-21T09:34:42;21.57;;;16.17;;
43070;SDS011;36278;47.952;21.714;2023-03-21T09:37:09;23.73;;;16.70;;
43070;SDS011;36278;47.952;21.714;2023-03-21T09:39:41;21.27;;;15.77;;
43070;SDS011;36278;47.952;21.714;2023-03-21T09:45:05;18.07;;;13.90;;
43070;SDS011;36278;47.952;21.714;2023-03-21T09:47:46;20.73;;;14.90;;
43070;SDS011;36278;47.952;21.714;2023-03-21T09:50:30;16.03;;;13.50;;
43070;SDS011;36278;47.952;21.714;2023-03-21T09:55:55;30.57;;;19.83;;
43070;SDS011;36278;47.952;21.714;2023-03-21T10:01:04;16.90;;;12.87;;
43070;SDS011;36278;47.952;21.714;2023-03-21T10:03:46;26.58;;;14.80;;
43070;SDS011;36278;47.952;21.714;2023-03-21T10:06:14;23.53;;;15.30;;
43070;SDS011;36278;47.952;21.714;2023-03-21T10:08:42;21.23;;;14.83;;
43070;SDS011;36278;47.952;21.714;2023-03-21T10:11:20;21.93;;;14.57;;
43070;SDS011;36278;47.952;21.714;2023-03-21T10:16:41;18.93;;;13.17;;
43070;SDS011;36278;47.952;21.714;2023-03-21T10:19:10;17.87;;;14.00;;
43070;SDS011;36278;47.952;21.714;2023-03-21T10:21:38;22.10;;;13.80;;
43070;SDS011;36278;47.952;21.714;2023-03-21T10:24:20;16.70;;;13.63;;
43070;SDS011;36278;47.952;21.714;2023-03-21T10:26:49;17.80;;;13.60;;
43070;SDS011;36278;47.952;21.714;2023-03-21T10:29:16;20.70;;;13.47;;
43070;SDS011;36278;47.952;21.714;2023-03-21T10:31:46;20.07;;;12.37;;
43070;SDS011;36278;47.952;21.714;2023-03-21T10:34:18;16.63;;;13.07;;
43070;SDS011;36278;47.952;21.714;2023-03-21T10:36:51;16.80;;;12.23;;
43070;SDS011;36278;47.952;21.714;2023-03-21T10:39:30;17.47;;;12.73;;
43070;SDS011;36278;47.952;21.714;2023-03-21T10:41:59;17.50;;;12.77;;
43070;SDS011;36278;47.952;21.714;2023-03-21T10:44:32;20.33;;;12.83;;
43070;SDS011;36278;47.952;21.714;2023-03-21T10:51:58;14.47;;;11.07;;
43070;SDS011;36278;47.952;21.714;2023-03-21T10:54:28;16.87;;;11.97;;
43070;SDS011;36278;47.952;21.714;2023-03-21T10:56:57;14.93;;;11.90;;
43070;SDS011;36278;47.952;21.714;2023-03-21T10:59:33;18.53;;;12.00;;
43070;SDS011;36278;47.952;21.714;2023-03-21T11:02:03;17.73;;;13.17;;
43070;SDS011;36278;47.952;21.714;2023-03-21T11:04:31;20.67;;;12.20;;
43070;SDS011;36278;47.952;21.714;2023-03-21T11:06:57;14.20;;;11.53;;
43070;SDS011;36278;47.952;21.714;2023-03-21T11:09:43;16.67;;;11.90;;
43070;SDS011;36278;47.952;21.714;2023-03-21T11:12:13;14.10;;;11.20;;
43070;SDS011;36278;47.952;21.714;2023-03-21T11:14:44;13.63;;;11.47;;
43070;SDS011;36278;47.952;21.714;2023-03-21T11:22:14;47.90;;;11.95;;
43070;SDS011;36278;47.952;21.714;2023-03-21T11:24:42;15.40;;;10.83;;
43070;SDS011;36278;47.952;21.714;2023-03-21T11:27:14;19.48;;;10.68;;
43070;SDS011;36278;47.952;21.714;2023-03-21T11:29:44;12.13;;;9.73;;
43070;SDS011;36278;47.952;21.714;2023-03-21T11:32:20;12.20;;;9.25;;
43070;SDS011;36278;47.952;21.714;2023-03-21T11:34:52;15.05;;;9.55;;
43070;SDS011;36278;47.952;21.714;2023-03-21T11:37:46;15.57;;;10.37;;
43070;SDS011;36278;47.952;21.714;2023-03-21T11:40:22;12.70;;;9.13;;
43070;SDS011;36278;47.952;21.714;2023-03-21T11:42:56;12.68;;;9.95;;
43070;SDS011;36278;47.952;21.714;2023-03-21T11:47:55;14.65;;;10.38;;
43070;SDS011;36278;47.952;21.714;2023-03-21T11:50:32;15.88;;;10.18;;
43070;SDS011;36278;47.952;21.714;2023-03-21T11:55:36;11.77;;;9.77;;
43070;SDS011;36278;47.952;21.714;2023-03-21T12:01:35;15.43;;;9.55;;
43070;SDS011;36278;47.952;21.714;2023-03-21T12:28:32;10.03;;;8.07;;
43070;SDS011;36278;47.952;21.714;2023-03-21T12:39:41;12.43;;;8.75;;
43070;SDS011;36278;47.952;21.714;2023-03-21T12:44:47;12.57;;;8.40;;
43070;SDS011;36278;47.952;21.714;2023-03-21T12:47:34;12.50;;;8.55;;
43070;SDS011;36278;47.952;21.714;2023-03-21T12:50:14;10.48;;;7.93;;
43070;SDS011;36278;47.952;21.714;2023-03-21T12:52:47;12.00;;;8.05;;
43070;SDS011;36278;47.952;21.714;2023-03-21T12:55:30;11.60;;;8.15;;
43070;SDS011;36278;47.952;21.714;2023-03-21T12:58:31;9.73;;;8.23;;
43070;SDS011;36278;47.952;21.714;2023-03-21T13:00:53;13.32;;;7.45;;
43070;SDS011;36278;47.952;21.714;2023-03-21T13:03:23;11.25;;;8.35;;
43070;SDS011;36278;47.952;21.714;2023-03-21T13:05:55;10.63;;;7.82;;
43070;SDS011;36278;47.952;21.714;2023-03-21T13:08:24;12.50;;;8.13;;
43070;SDS011;36278;47.952;21.714;2023-03-21T13:10:52;9.27;;;7.60;;
43070;SDS011;36278;47.952;21.714;2023-03-21T13:16:19;10.15;;;7.43;;
43070;SDS011;36278;47.952;21.714;2023-03-21T13:18:56;11.68;;;7.93;;
43070;SDS011;36278;47.952;21.714;2023-03-21T13:27:03;9.93;;;7.78;;
43070;SDS011;36278;47.952;21.714;2023-03-21T13:29:52;10.23;;;7.65;;
43070;SDS011;36278;47.952;21.714;2023-03-21T13:32:37;11.63;;;8.68;;
43070;SDS011;36278;47.952;21.714;2023-03-21T13:35:14;14.80;;;9.00;;
43070;SDS011;36278;47.952;21.714;2023-03-21T13:37:48;13.80;;;9.02;;
43070;SDS011;36278;47.952;21.714;2023-03-21T13:40:59;15.82;;;7.95;;
43070;SDS011;36278;47.952;21.714;2023-03-21T13:46:05;10.63;;;8.07;;
43070;SDS011;36278;47.952;21.714;2023-03-21T13:54:12;11.33;;;8.23;;
43070;SDS011;36278;47.952;21.714;2023-03-21T13:59:18;8.83;;;7.93;;
43070;SDS011;36278;47.952;21.714;2023-03-21T14:04:38;11.97;;;7.23;;
43070;SDS011;36278;47.952;21.714;2023-03-21T14:07:07;10.03;;;7.63;;
43070;SDS011;36278;47.952;21.714;2023-03-21T14:12:05;9.60;;;8.30;;
43070;SDS011;36278;47.952;21.714;2023-03-21T14:14:40;16.27;;;8.57;;
43070;SDS011;36278;47.952;21.714;2023-03-21T14:17:14;12.30;;;8.23;;
43070;SDS011;36278;47.952;21.714;2023-03-21T14:19:51;10.05;;;7.80;;
43070;SDS011;36278;47.952;21.714;2023-03-21T14:22:18;9.02;;;6.57;;
43070;SDS011;36278;47.952;21.714;2023-03-21T14:24:57;8.93;;;6.18;;
43070;SDS011;36278;47.952;21.714;2023-03-21T14:27:24;7.60;;;6.32;;
43070;SDS011;36278;47.952;21.714;2023-03-21T14:29:55;7.40;;;6.68;;
43070;SDS011;36278;47.952;21.714;2023-03-21T14:32:22;8.65;;;6.60;;
43070;SDS011;36278;47.952;21.714;2023-03-21T14:34:50;7.75;;;5.97;;
43070;SDS011;36278;47.952;21.714;2023-03-21T14:37:25;8.27;;;4.90;;
43070;SDS011;36278;47.952;21.714;2023-03-21T14:40:05;6.53;;;5.20;;
43070;SDS011;36278;47.952;21.714;2023-03-21T14:42:52;12.60;;;6.15;;
43070;SDS011;36278;47.952;21.714;2023-03-21T14:45:28;7.95;;;4.80;;
43070;SDS011;36278;47.952;21.714;2023-03-21T14:50:28;7.50;;;5.93;;
43070;SDS011;36278;47.952;21.714;2023-03-21T14:52:59;5.95;;;5.15;;
43070;SDS011;36278;47.952;21.714;2023-03-21T14:55:25;7.38;;;5.65;;
43070;SDS011;36278;47.952;21.714;2023-03-21T14:57:51;10.52;;;5.65;;
43070;SDS011;36278;47.952;21.714;2023-03-21T15:00:22;8.27;;;5.57;;
43070;SDS011;36278;47.952;21.714;2023-03-21T15:02:53;9.13;;;6.60;;
43070;SDS011;36278;47.952;21.714;2023-03-21T15:08:00;11.57;;;7.40;;
43070;SDS011;36278;47.952;21.714;2023-03-21T15:10:32;10.20;;;6.97;;
43070;SDS011;36278;47.952;21.714;2023-03-21T15:12:59;9.40;;;6.78;;
43070;SDS011;36278;47.952;21.714;2023-03-21T15:15:36;10.65;;;7.60;;
43070;SDS011;36278;47.952;21.714;2023-03-21T15:18:04;15.23;;;7.50;;
43070;SDS011;36278;47.952;21.714;2023-03-21T15:20:35;10.55;;;6.43;;
43070;SDS011;36278;47.952;21.714;2023-03-21T15:23:04;8.38;;;5.85;;
43070;SDS011;36278;47.952;21.714;2023-03-21T15:25:36;8.55;;;5.32;;
43070;SDS011;36278;47.952;21.714;2023-03-21T15:28:03;9.25;;;5.28;;
43070;SDS011;36278;47.952;21.714;2023-03-21T15:30:30;6.63;;;5.28;;
43070;SDS011;36278;47.952;21.714;2023-03-21T15:32:58;7.15;;;5.97;;
43070;SDS011;36278;47.952;21.714;2023-03-21T15:35:32;9.85;;;5.50;;
43070;SDS011;36278;47.952;21.714;2023-03-21T15:38:02;6.65;;;5.22;;
43070;SDS011;36278;47.952;21.714;2023-03-21T15:40:29;12.65;;;5.60;;
43070;SDS011;36278;47.952;21.714;2023-03-21T15:43:11;7.93;;;5.15;;
43070;SDS011;36278;47.952;21.714;2023-03-21T15:45:45;9.00;;;5.38;;
43070;SDS011;36278;47.952;21.714;2023-03-21T15:48:27;7.57;;;5.80;;
43070;SDS011;36278;47.952;21.714;2023-03-21T15:51:04;10.63;;;6.33;;
43070;SDS011;36278;47.952;21.714;2023-03-21T15:53:31;8.73;;;6.80;;
43070;SDS011;36278;47.952;21.714;2023-03-21T15:55:58;7.97;;;6.40;;
43070;SDS011;36278;47.952;21.714;2023-03-21T15:58:35;7.80;;;6.00;;
43070;SDS011;36278;47.952;21.714;2023-03-21T16:01:15;13.70;;;6.63;;
43070;SDS011;36278;47.952;21.714;2023-03-21T16:03:44;9.07;;;6.10;;
43070;SDS011;36278;47.952;21.714;2023-03-21T16:08:44;11.67;;;6.50;;
43070;SDS011;36278;47.952;21.714;2023-03-21T16:11:47;15.32;;;6.70;;
43070;SDS011;36278;47.952;21.714;2023-03-21T16:14:05;11.45;;;7.22;;
43070;SDS011;36278;47.952;21.714;2023-03-21T16:16:31;10.70;;;7.97;;
43070;SDS011;36278;47.952;21.714;2023-03-21T16:18:57;13.63;;;10.50;;
43070;SDS011;36278;47.952;21.714;2023-03-21T16:21:25;14.87;;;10.77;;
43070;SDS011;36278;47.952;21.714;2023-03-21T16:23:53;15.90;;;9.70;;
43070;SDS011;36278;47.952;21.714;2023-03-21T16:26:21;14.97;;;10.97;;
43070;SDS011;36278;47.952;21.714;2023-03-21T16:28:49;12.07;;;10.07;;
43070;SDS011;36278;47.952;21.714;2023-03-21T16:31:16;15.47;;;11.17;;
43070;SDS011;36278;47.952;21.714;2023-03-21T16:33:44;14.80;;;11.57;;
43070;SDS011;36278;47.952;21.714;2023-03-21T16:36:11;12.67;;;10.70;;
43070;SDS011;36278;47.952;21.714;2023-03-21T16:38:45;18.87;;;11.33;;
43070;SDS011;36278;47.952;21.714;2023-03-21T16:41:13;15.37;;;11.73;;
43070;SDS011;36278;47.952;21.714;2023-03-21T16:43:40;17.57;;;11.93;;